Time;durP1;ratioP1;P1;durP2;ratioP2;P2;SDS_P1;SDS_P2;PMS_P1;PMS_P2;Temp;Humidity;BMP_temperature;BMP_pressure;BME280_temperature;BME280_humidity;BME280_pressure;Samples;Min_cycle;Max_cycle;Signal;HPM_P1;HPM_P2
2023/09/14 00:01:03;;;;;;;1.30;0.20;;;;;;;11.89;74.26;101735.75;5041026;28;20056;-74
2023/09/14 00:03:30;;;;;;;0.43;0.10;;;;;;;11.87;74.25;101740.16;4994079;28;1221868;-73
2023/09/14 00:05:56;;;;;;;0.45;0.10;;;;;;;11.86;74.31;101746.25;5039298;28;20461;-74
2023/09/14 00:08:23;;;;;;;1.65;0.00;;;;;;;11.86;74.37;101742.78;5043956;28;20048;-75
2023/09/14 00:10:54;;;;;;;0.52;0.10;;;;;;;11.84;74.16;101745.41;5036208;28;20073;-73
2023/09/14 00:13:21;;;;;;;0.82;0.00;;;;;;;11.82;74.27;101751.53;5040323;28;20491;-73
2023/09/14 00:15:48;;;;;;;0.25;0.10;;;;;;;11.80;74.30;101748.91;5020645;28;20434;-74
2023/09/14 00:18:16;;;;;;;2.63;0.10;;;;;;;11.78;74.25;101750.69;5040129;28;20490;-73
2023/09/14 00:20:43;;;;;;;0.63;0.00;;;;;;;11.77;74.31;101754.16;5040190;28;20053;-74
2023/09/14 00:23:10;;;;;;;0.63;0.10;;;;;;;11.73;74.24;101747.22;5039439;28;20049;-73
2023/09/14 00:25:37;;;;;;;0.20;0.10;;;;;;;11.74;74.31;101756.81;5037845;28;20044;-73
2023/09/14 00:28:04;;;;;;;0.00;0.00;;;;;;;11.74;74.18;101751.56;5038957;28;20048;-75
2023/09/14 00:30:31;;;;;;;4.95;0.20;;;;;;;11.73;74.13;101755.06;5043794;28;20045;-73
2023/09/14 00:32:58;;;;;;;0.45;0.10;;;;;;;11.71;74.26;101755.06;5039643;28;20056;-74
2023/09/14 00:35:27;;;;;;;0.82;0.00;;;;;;;11.70;74.17;101753.34;5035850;28;20037;-74
2023/09/14 00:37:54;;;;;;;0.10;0.10;;;;;;;11.69;74.26;101755.97;5041824;28;20430;-73
2023/09/14 00:40:21;;;;;;;0.20;0.00;;;;;;;11.67;74.13;101747.28;5041596;28;21275;-74
2023/09/14 00:42:50;;;;;;;1.08;0.05;;;;;;;11.64;73.83;101740.31;5039240;28;20482;-74
2023/09/14 00:45:20;;;;;;;0.08;0.03;;;;;;;11.63;74.02;101745.53;5032651;28;20170;-75
2023/09/14 00:47:49;;;;;;;0.22;0.00;;;;;;;11.61;74.18;101742.97;5042531;28;20045;-74
2023/09/14 00:50:17;;;;;;;0.20;0.03;;;;;;;11.59;74.21;101749.09;5041653;28;20045;-73
2023/09/14 00:52:47;;;;;;;0.40;0.10;;;;;;;11.57;74.24;101761.28;5037441;28;20696;-73
2023/09/14 00:55:18;;;;;;;0.52;0.10;;;;;;;11.55;74.28;101749.97;5035598;28;20052;-74
2023/09/14 00:57:47;;;;;;;0.10;0.00;;;;;;;11.53;74.22;101756.97;5038639;28;20045;-73
2023/09/14 01:00:16;;;;;;;2.55;0.10;;;;;;;11.52;74.44;101766.56;5041158;28;20056;-74
2023/09/14 01:02:43;;;;;;;0.20;0.00;;;;;;;11.49;74.31;101759.59;5002793;28;20062;-73
2023/09/14 01:05:12;;;;;;;0.65;0.00;;;;;;;11.48;74.24;101765.72;5035523;28;20415;-75
2023/09/14 01:07:40;;;;;;;0.38;0.00;;;;;;;11.48;74.10;101775.31;5040354;28;20041;-75
2023/09/14 01:10:10;;;;;;;0.13;0.00;;;;;;;11.46;74.14;101766.59;5041811;28;20529;-76
2023/09/14 01:12:39;;;;;;;4.72;0.00;;;;;;;11.44;74.25;101774.47;5042539;28;20053;-76
2023/09/14 01:15:11;;;;;;;0.30;0.00;;;;;;;11.41;74.21;101766.63;5042074;28;20045;-75
2023/09/14 01:17:44;;;;;;;1.48;0.00;;;;;;;11.41;73.98;101768.34;5041757;28;20063;-75
2023/09/14 01:20:32;;;;;;;0.55;0.00;;;;;;;11.39;74.05;101768.38;5038703;28;20091;-75
2023/09/14 01:23:10;;;;;;;0.52;0.10;;;;;;;11.38;74.17;101773.63;5043067;28;20045;-75
2023/09/14 01:25:43;;;;;;;1.52;0.00;;;;;;;11.36;74.03;101770.16;5039251;28;20057;-75
2023/09/14 01:28:10;;;;;;;1.45;0.05;;;;;;;11.33;73.92;101770.19;5041331;28;20045;-75
2023/09/14 01:30:38;;;;;;;3.53;0.10;;;;;;;11.31;73.98;101778.03;5039448;28;20052;-76
2023/09/14 01:33:06;;;;;;;0.22;0.00;;;;;;;11.30;73.80;101773.69;5036203;28;20603;-75
2023/09/14 01:35:39;;;;;;;0.95;0.00;;;;;;;11.28;74.04;101764.09;5042574;28;20041;-75
2023/09/14 01:38:07;;;;;;;2.88;0.10;;;;;;;11.27;73.94;101778.94;5038936;28;20055;-75
2023/09/14 01:40:36;;;;;;;0.30;0.20;;;;;;;11.25;73.98;101773.69;5040045;28;20498;-75
2023/09/14 01:43:06;;;;;;;1.92;0.20;;;;;;;11.21;73.76;101773.69;5042160;28;20056;-76
2023/09/14 01:45:34;;;;;;;1.98;0.00;;;;;;;11.21;73.92;101779.81;5039217;28;20053;-72
2023/09/14 01:48:01;;;;;;;0.95;0.05;;;;;;;11.20;73.74;101783.31;5038923;28;20103;-72
2023/09/14 01:50:28;;;;;;;0.65;0.00;;;;;;;11.18;73.99;101781.56;5040417;28;20061;-74
2023/09/14 01:52:57;;;;;;;0.10;0.00;;;;;;;11.16;74.02;101780.72;5040493;28;20059;-73
2023/09/14 01:55:24;;;;;;;2.22;0.10;;;;;;;11.14;74.04;101782.47;5038586;28;20051;-73
2023/09/14 01:57:51;;;;;;;1.52;0.03;;;;;;;11.11;73.97;101785.09;5030551;28;20048;-73
2023/09/14 02:00:19;;;;;;;0.08;0.00;;;;;;;11.07;73.92;101779.03;5037288;28;20041;-73
2023/09/14 02:02:46;;;;;;;0.68;0.20;;;;;;;11.06;73.88;101785.09;5042077;28;20061;-72
2023/09/14 02:05:13;;;;;;;0.00;0.00;;;;;;;11.07;73.86;101785.97;5039457;28;20045;-73
2023/09/14 02:07:40;;;;;;;0.35;0.00;;;;;;;11.03;73.72;101800.81;5038591;28;20136;-72
2023/09/14 02:10:08;;;;;;;0.47;0.00;;;;;;;11.00;73.82;101796.47;5039262;28;20047;-73
2023/09/14 02:12:35;;;;;;;0.10;0.00;;;;;;;10.98;73.80;101794.72;5034379;28;20063;-73
2023/09/14 02:15:02;;;;;;;2.95;0.20;;;;;;;10.97;73.86;101800.84;5038076;28;20049;-75
2023/09/14 02:17:30;;;;;;;0.10;0.10;;;;;;;10.95;73.85;101792.13;5039710;28;20055;-75
2023/09/14 02:19:58;;;;;;;4.43;0.10;;;;;;;10.92;73.97;101794.75;5041268;28;20132;-75
2023/09/14 02:22:25;;;;;;;0.47;0.00;;;;;;;10.89;73.78;101795.63;5038641;28;20126;-75
2023/09/14 02:24:52;;;;;;;0.32;0.08;;;;;;;10.87;73.88;101800.03;5039486;28;20045;-75
2023/09/14 02:27:19;;;;;;;1.02;0.00;;;;;;;10.84;73.87;101805.22;5039031;28;21347;-75
2023/09/14 02:29:46;;;;;;;0.40;0.00;;;;;;;10.81;73.93;101810.47;4996612;28;20047;-75
2023/09/14 02:32:13;;;;;;;0.50;0.10;;;;;;;10.77;73.88;101809.63;5034312;28;20172;-75
2023/09/14 02:34:41;;;;;;;0.52;0.00;;;;;;;10.76;74.09;101817.47;5042709;28;20059;-75
2023/09/14 02:37:08;;;;;;;0.30;0.10;;;;;;;10.73;73.81;101810.50;5039070;28;20574;-77
2023/09/14 02:39:35;;;;;;;4.43;0.10;;;;;;;10.73;73.97;101825.28;5038769;28;20494;-75
2023/09/14 02:42:02;;;;;;;2.30;0.10;;;;;;;10.71;73.96;101819.22;5035447;28;20068;-75
2023/09/14 02:44:29;;;;;;;0.77;0.10;;;;;;;10.69;74.00;101820.97;5038212;28;20053;-76
2023/09/14 02:46:56;;;;;;;3.47;0.03;;;;;;;10.66;74.10;101818.34;5036806;28;20474;-76
2023/09/14 02:49:23;;;;;;;3.10;0.10;;;;;;;10.64;73.86;101825.31;5041339;28;20107;-75
2023/09/14 02:51:51;;;;;;;1.63;0.00;;;;;;;10.62;74.20;101814.03;5039892;28;20049;-75
2023/09/14 02:54:19;;;;;;;1.13;0.00;;;;;;;10.58;74.26;101824.44;5042040;28;20044;-77
2023/09/14 02:56:47;;;;;;;0.13;0.00;;;;;;;10.55;74.16;101827.06;5040851;28;20073;-76
2023/09/14 02:59:16;;;;;;;0.38;0.10;;;;;;;10.54;74.20;101827.09;5045445;28;20458;-81
2023/09/14 03:01:44;;;;;;;0.00;0.00;;;;;;;10.52;74.43;101834.06;5041228;28;20057;-76
2023/09/14 03:04:11;;;;;;;0.93;0.00;;;;;;;10.50;74.35;101826.22;5044081;28;20136;-76
2023/09/14 03:06:38;;;;;;;1.13;0.10;;;;;;;10.49;74.21;101829.69;5041060;28;20418;-78
2023/09/14 03:09:07;;;;;;;3.42;1.02;;;;;;;10.47;74.62;101841.00;5042957;28;20646;-77
2023/09/14 03:11:34;;;;;;;1.63;0.10;;;;;;;10.44;74.56;101841.88;5037703;28;20490;-76
2023/09/14 03:14:00;;;;;;;0.00;0.00;;;;;;;10.43;74.62;101853.22;5041910;28;20140;-77
2023/09/14 03:16:27;;;;;;;0.00;0.00;;;;;;;10.42;74.49;101853.22;5040682;28;20057;-77
2023/09/14 03:18:54;;;;;;;1.23;0.00;;;;;;;10.41;74.51;101851.47;5042728;28;20052;-77
2023/09/14 03:21:25;;;;;;;2.50;0.10;;;;;;;10.39;74.53;101858.44;5042214;28;20049;-78
2023/09/14 03:23:52;;;;;;;0.17;0.00;;;;;;;10.37;74.76;101866.28;5036617;28;20049;-74
2023/09/14 03:26:23;;;;;;;4.50;0.10;;;;;;;10.34;74.42;101866.28;5037883;28;20049;-73
2023/09/14 03:28:51;;;;;;;1.25;0.10;;;;;;;10.34;74.58;101876.72;5035521;28;20041;-74
2023/09/14 03:31:18;;;;;;;0.15;0.10;;;;;;;10.32;74.78;101876.72;5037141;28;20504;-73
2023/09/14 03:33:47;;;;;;;3.10;0.10;;;;;;;10.27;74.32;101869.75;5033993;28;20126;-73
2023/09/14 03:36:14;;;;;;;0.32;0.10;;;;;;;10.30;74.98;101880.19;5039232;28;20497;-74
2023/09/14 03:38:41;;;;;;;0.40;0.10;;;;;;;10.28;74.65;101871.50;5037769;28;20048;-73
2023/09/14 03:41:08;;;;;;;3.75;0.10;;;;;;;10.28;74.47;101888.06;5037538;28;20041;-73
2023/09/14 03:43:36;;;;;;;0.88;0.10;;;;;;;10.26;74.43;101881.03;5038152;28;20495;-73
2023/09/14 03:46:03;;;;;;;2.08;0.10;;;;;;;10.26;74.84;101888.88;5036782;28;20053;-73
2023/09/14 03:48:30;;;;;;;0.52;0.10;;;;;;;10.24;74.64;101890.59;5038811;28;20518;-73
2023/09/14 03:50:59;;;;;;;1.25;0.03;;;;;;;10.20;74.84;101891.50;5039723;28;20045;-73
2023/09/14 03:53:26;;;;;;;0.20;0.10;;;;;;;10.23;75.00;101892.34;5035399;28;20079;-73
2023/09/14 03:55:53;;;;;;;3.17;0.10;;;;;;;10.21;74.99;101885.38;5044300;28;20057;-73
2023/09/14 03:58:20;;;;;;;0.03;0.00;;;;;;;10.20;74.50;101899.31;5039159;28;20045;-73
2023/09/14 04:00:48;;;;;;;1.73;0.10;;;;;;;10.18;74.95;101899.31;5038343;28;20403;-73
2023/09/14 04:03:17;;;;;;;0.77;0.10;;;;;;;10.16;74.77;101894.94;5040280;28;20079;-76
2023/09/14 04:05:44;;;;;;;0.25;0.00;;;;;;;10.11;75.00;101889.75;5039965;28;20072;-76
2023/09/14 04:08:11;;;;;;;1.00;0.10;;;;;;;10.14;74.95;101906.28;5039492;28;20045;-75
2023/09/14 04:10:38;;;;;;;0.73;0.10;;;;;;;10.14;74.45;101905.41;5040024;28;20053;-75
2023/09/14 04:13:28;;;;;;;1.65;0.00;;;;;;;10.13;74.64;101911.47;5040274;28;20053;-75
2023/09/14 04:15:58;;;;;;;1.73;0.00;;;;;;;10.11;74.51;101921.94;5035897;28;21037;-75
2023/09/14 04:18:25;;;;;;;0.10;0.00;;;;;;;10.09;74.91;101928.88;5040820;28;20049;-75
2023/09/14 04:20:53;;;;;;;0.45;0.10;;;;;;;10.09;74.99;101921.06;5044202;28;20045;-76
2023/09/14 04:23:20;;;;;;;0.10;0.08;;;;;;;10.08;74.68;101921.94;5038870;28;20671;-75
2023/09/14 04:25:48;;;;;;;4.80;0.10;;;;;;;10.01;74.97;101917.56;5037478;28;20048;-75
2023/09/14 04:28:16;;;;;;;1.52;0.10;;;;;;;10.02;74.77;101915.84;5035848;28;20383;-75
2023/09/14 04:30:44;;;;;;;0.82;0.10;;;;;;;10.04;74.93;101922.78;5039425;28;20049;-75
2023/09/14 04:33:14;;;;;;;1.58;0.10;;;;;;;10.03;74.75;101928.88;5041324;28;20049;-76
2023/09/14 04:35:41;;;;;;;0.20;0.00;;;;;;;10.04;75.14;101930.59;5039750;28;20048;-76
2023/09/14 04:38:08;;;;;;;0.22;0.00;;;;;;;9.99;75.11;101921.03;5039882;28;20048;-75
2023/09/14 04:40:38;;;;;;;1.13;0.00;;;;;;;9.96;74.85;101919.31;5041961;28;20045;-76
2023/09/14 04:43:05;;;;;;;0.63;0.05;;;;;;;10.00;75.12;101928.00;5039267;28;20648;-76
2023/09/14 04:45:32;;;;;;;4.50;0.10;;;;;;;10.00;75.11;101934.09;5037294;28;20067;-76
2023/09/14 04:48:00;;;;;;;0.20;0.10;;;;;;;9.98;75.29;101928.00;5041879;28;20045;-79
2023/09/14 04:50:29;;;;;;;2.85;0.00;;;;;;;9.97;74.79;101931.47;5038120;28;20037;-75
2023/09/14 04:52:56;;;;;;;0.50;0.10;;;;;;;9.97;75.02;101938.44;5039924;28;20049;-76
2023/09/14 04:55:24;;;;;;;0.20;0.10;;;;;;;9.96;75.12;101929.75;5040061;28;20053;-75
2023/09/14 04:57:51;;;;;;;0.30;0.00;;;;;;;9.95;75.13;101932.34;5042275;28;20074;-76
2023/09/14 05:00:18;;;;;;;0.25;0.10;;;;;;;9.95;75.34;101933.22;5039500;28;20044;-76
2023/09/14 05:02:45;;;;;;;1.40;0.20;;;;;;;9.96;75.34;101931.47;5034301;28;20064;-75
2023/09/14 05:05:12;;;;;;;1.25;0.10;;;;;;;9.95;75.65;101930.59;5037406;28;20041;-75
2023/09/14 05:07:42;;;;;;;2.50;0.10;;;;;;;9.95;75.49;101937.56;5036434;28;20048;-75
2023/09/14 05:10:10;;;;;;;0.82;0.10;;;;;;;9.94;75.47;101946.28;5037500;28;20110;-75
2023/09/14 05:12:37;;;;;;;0.20;0.10;;;;;;;9.94;75.59;101943.66;5037852;28;20068;-75
2023/09/14 05:15:04;;;;;;;1.05;0.00;;;;;;;9.95;75.46;101945.38;5038540;28;20050;-75
2023/09/14 05:17:31;;;;;;;3.10;0.05;;;;;;;9.94;75.32;101938.44;5039088;28;20125;-75
2023/09/14 05:19:58;;;;;;;0.63;0.10;;;;;;;9.93;75.77;101940.16;5036570;28;20421;-76
2023/09/14 05:22:25;;;;;;;0.95;0.10;;;;;;;9.95;75.46;101941.03;5038629;28;20045;-76
2023/09/14 05:24:54;;;;;;;0.57;0.00;;;;;;;9.95;75.41;101943.66;5040593;28;20056;-77
2023/09/14 05:27:21;;;;;;;0.30;0.00;;;;;;;9.95;75.33;101946.25;5037324;28;20045;-75
2023/09/14 05:29:48;;;;;;;0.40;0.10;;;;;;;9.89;75.47;101934.06;5037393;28;20509;-75
2023/09/14 05:32:15;;;;;;;0.25;0.00;;;;;;;9.96;75.60;101948.03;5041776;28;20507;-75
2023/09/14 05:34:42;;;;;;;1.65;0.10;;;;;;;9.96;75.90;101945.41;5038036;28;20466;-74
2023/09/14 05:37:10;;;;;;;0.10;0.00;;;;;;;9.97;75.76;101941.91;5042288;28;20057;-74
2023/09/14 05:39:37;;;;;;;0.10;0.03;;;;;;;9.99;75.92;101947.13;5041460;28;20099;-77
2023/09/14 05:42:06;;;;;;;0.10;0.00;;;;;;;10.00;75.80;101954.13;5040934;28;20053;-78
2023/09/14 05:44:33;;;;;;;0.63;0.10;;;;;;;10.00;75.69;101949.75;5041698;28;20053;-75
2023/09/14 05:46:59;;;;;;;0.43;0.10;;;;;;;10.02;75.68;101957.59;5036867;28;20106;-75
2023/09/14 05:49:26;;;;;;;1.00;0.03;;;;;;;10.04;75.98;101961.06;5040864;28;20530;-74
2023/09/14 05:51:53;;;;;;;5.30;0.10;;;;;;;10.04;75.67;101959.31;5039676;28;20490;-74
2023/09/14 05:54:20;;;;;;;2.28;0.10;;;;;;;10.07;75.96;101958.47;5039370;28;20422;-75
2023/09/14 05:56:48;;;;;;;0.70;0.10;;;;;;;10.06;75.62;101955.00;5039679;28;20045;-75
2023/09/14 05:59:16;;;;;;;1.65;0.10;;;;;;;10.08;75.83;101958.47;5039140;28;20056;-74
2023/09/14 06:01:43;;;;;;;1.17;0.13;;;;;;;9.93;75.51;101932.31;5036066;28;20053;-74
2023/09/14 06:04:10;;;;;;;0.28;0.10;;;;;;;10.12;76.08;101954.13;5039458;28;20049;-74
2023/09/14 06:06:37;;;;;;;3.40;0.68;;;;;;;10.13;76.11;101962.00;5038754;28;20056;-74
2023/09/14 06:09:04;;;;;;;5.78;0.20;;;;;;;10.14;75.74;101968.94;5037239;28;20049;-75
2023/09/14 06:11:31;;;;;;;0.68;0.10;;;;;;;10.17;75.75;101975.03;5039530;28;20072;-73
2023/09/14 06:13:58;;;;;;;0.25;0.10;;;;;;;10.18;75.79;101968.94;5041168;28;20041;-73
2023/09/14 06:16:26;;;;;;;6.43;0.75;;;;;;;10.20;76.15;101964.59;5007689;28;20060;-73
2023/09/14 06:18:53;;;;;;;1.98;0.10;;;;;;;10.22;75.95;101968.09;5038564;28;22052;-73
2023/09/14 06:21:20;;;;;;;0.25;0.10;;;;;;;10.24;76.09;101975.03;5038906;28;20123;-76
2023/09/14 06:23:47;;;;;;;0.95;0.15;;;;;;;10.26;75.87;101970.69;5039287;28;20042;-78
2023/09/14 06:26:14;;;;;;;2.33;0.15;;;;;;;10.23;76.00;101964.59;5040111;28;20041;-77
2023/09/14 06:28:41;;;;;;;3.90;0.10;;;;;;;10.31;76.24;101986.44;5044388;28;20494;-77
2023/09/14 06:31:08;;;;;;;0.63;0.10;;;;;;;10.34;76.42;101983.81;5044766;28;20057;-77
2023/09/14 06:33:36;;;;;;;1.00;0.10;;;;;;;10.36;76.02;101987.31;5042813;28;20513;-74
2023/09/14 06:36:03;;;;;;;1.35;0.10;;;;;;;10.39;76.34;101991.63;5038884;28;20049;-75
2023/09/14 06:38:30;;;;;;;1.65;0.20;;;;;;;10.42;75.76;102005.59;5042825;28;20053;-77
2023/09/14 06:40:57;;;;;;;4.78;0.30;;;;;;;10.44;75.64;102003.84;5045534;28;20045;-77
2023/09/14 06:43:24;;;;;;;1.60;0.13;;;;;;;10.46;75.93;101994.28;5039911;28;20056;-78
2023/09/14 06:45:51;;;;;;;1.85;0.08;;;;;;;10.51;76.18;101999.53;5038866;28;20056;-77
2023/09/14 06:48:18;;;;;;;1.80;0.10;;;;;;;10.52;76.22;101998.63;5042091;28;20049;-79
2023/09/14 06:50:46;;;;;;;1.67;0.10;;;;;;;10.58;76.30;102016.94;5041465;28;20041;-79
2023/09/14 06:53:13;;;;;;;0.85;0.20;;;;;;;10.61;76.15;102010.84;5041070;28;20548;-78
2023/09/14 06:55:40;;;;;;;1.13;0.10;;;;;;;10.64;76.05;102014.31;5042014;28;20847;-79
2023/09/14 06:58:07;;;;;;;1.50;0.20;;;;;;;10.67;76.20;102013.47;5048690;28;20067;-80
2023/09/14 07:00:35;;;;;;;1.08;0.85;;;;;;;10.72;75.72;102020.44;5046816;28;20045;-77
2023/09/14 07:03:03;;;;;;;1.00;0.20;;;;;;;10.77;75.87;102020.44;5041739;28;20045;-82
2023/09/14 07:05:30;;;;;;;3.20;0.20;;;;;;;10.80;75.96;102026.53;5049491;28;20057;-79
2023/09/14 07:07:59;;;;;;;0.30;0.20;;;;;;;10.85;76.14;102017.84;5050660;28;20037;-81
2023/09/14 07:10:26;;;;;;;2.03;0.20;;;;;;;10.89;75.81;102017.81;5051517;28;20045;-85
2023/09/14 07:12:53;;;;;;;0.30;0.10;;;;;;;10.93;75.96;102024.81;5047410;28;20045;-84
2023/09/14 07:15:19;;;;;;;3.75;0.17;;;;;;;10.99;76.17;102026.56;5038566;28;20876;-84
2023/09/14 07:17:46;;;;;;;0.65;0.10;;;;;;;11.02;75.71;102030.03;5047007;28;20045;-80
2023/09/14 07:20:13;;;;;;;2.55;0.10;;;;;;;11.09;75.88;102036.13;5048858;28;20045;-84
2023/09/14 07:22:40;;;;;;;2.00;0.10;;;;;;;11.14;76.04;102033.53;5046717;28;20375;-84
2023/09/14 07:25:09;;;;;;;2.85;0.10;;;;;;;11.17;76.08;102023.91;5047838;28;20612;-87
2023/09/14 07:27:36;;;;;;;4.53;0.10;;;;;;;11.25;75.93;102024.78;5048427;28;20556;-87
2023/09/14 07:30:04;;;;;;;0.60;0.05;;;;;;;11.32;75.91;102027.38;5051582;28;20088;-83
2023/09/14 07:32:31;;;;;;;1.75;0.38;;;;;;;11.40;75.55;102036.09;5029433;28;20111;-81
2023/09/14 07:35:00;;;;;;;1.92;0.10;;;;;;;11.46;75.52;102030.84;5043434;28;20478;-73
2023/09/14 07:37:27;;;;;;;1.38;0.10;;;;;;;11.53;75.26;102035.22;5042419;28;20107;-73
2023/09/14 07:39:54;;;;;;;4.10;0.10;;;;;;;11.62;75.53;102026.47;5040657;28;20154;-73
2023/09/14 07:42:22;;;;;;;8.18;0.95;;;;;;;11.72;75.15;102049.09;5040402;28;20045;-74
2023/09/14 07:44:49;;;;;;;0.30;0.10;;;;;;;11.81;74.94;102041.25;5044460;28;20059;-74
2023/09/14 07:47:16;;;;;;;3.08;0.10;;;;;;;11.92;74.38;102052.59;5038868;28;20061;-74
2023/09/14 07:49:45;;;;;;;1.23;0.20;;;;;;;12.04;74.45;102035.94;5041616;28;20053;-74
2023/09/14 07:52:12;;;;;;;2.08;0.10;;;;;;;12.14;74.36;102037.63;5040112;28;20041;-73
2023/09/14 07:54:38;;;;;;;1.27;0.10;;;;;;;12.22;74.35;102036.75;5038949;28;20064;-74
2023/09/14 07:57:05;;;;;;;1.75;0.10;;;;;;;12.40;73.97;102048.88;5035933;28;20045;-74
2023/09/14 07:59:34;;;;;;;3.42;0.22;;;;;;;12.46;73.67;102031.34;5038226;28;20045;-74
2023/09/14 08:02:00;;;;;;;3.42;0.10;;;;;;;12.64;73.58;102038.25;5037355;28;20053;-73
2023/09/14 08:04:27;;;;;;;0.60;0.10;;;;;;;12.74;73.25;102042.50;5041856;28;20165;-74
2023/09/14 08:06:54;;;;;;;1.80;0.10;;;;;;;12.85;73.15;102042.44;5035334;28;20051;-72
2023/09/14 08:09:22;;;;;;;0.43;0.10;;;;;;;12.97;73.20;102042.34;5039637;28;20045;-73
2023/09/14 08:11:49;;;;;;;0.10;0.05;;;;;;;13.09;72.80;102041.41;5040397;28;20193;-72
2023/09/14 08:14:16;;;;;;;4.90;0.10;;;;;;;13.19;71.67;102050.91;5040086;28;20632;-72
2023/09/14 08:16:44;;;;;;;0.85;0.10;;;;;;;13.32;71.20;102064.84;5036348;28;20390;-74
2023/09/14 08:19:11;;;;;;;0.82;0.10;;;;;;;13.45;71.15;102060.31;5040010;28;20046;-75
2023/09/14 08:21:38;;;;;;;0.28;0.10;;;;;;;13.55;71.12;102068.97;5036283;28;20045;-73
2023/09/14 08:24:06;;;;;;;1.75;0.00;;;;;;;13.65;70.13;102079.34;5043288;28;20060;-72
2023/09/14 08:26:33;;;;;;;2.72;0.10;;;;;;;13.73;70.38;102072.28;5041576;28;20060;-74
2023/09/14 08:28:59;;;;;;;1.40;0.10;;;;;;;13.84;69.58;102079.19;5039673;28;20583;-75
2023/09/14 08:31:27;;;;;;;1.27;0.10;;;;;;;13.95;69.74;102091.31;5042941;28;20045;-74
2023/09/14 08:33:55;;;;;;;2.20;0.10;;;;;;;14.03;69.40;102088.59;5039261;28;20052;-73
2023/09/14 08:36:22;;;;;;;1.75;0.00;;;;;;;14.11;69.15;102085.84;5038705;28;20076;-73
2023/09/14 08:38:49;;;;;;;0.50;0.10;;;;;;;14.17;69.32;102089.28;5043692;28;20388;-73
2023/09/14 08:41:26;;;;;;;0.65;0.30;;;;;;;14.20;68.91;102087.50;5038355;28;20049;-73
2023/09/14 08:43:54;;;;;;;0.70;0.45;;;;;;;14.30;68.84;102095.25;5039165;28;20566;-76
2023/09/14 08:46:23;;;;;;;0.38;0.10;;;;;;;14.34;68.92;102089.09;5039406;28;20579;-75
2023/09/14 08:48:53;;;;;;;0.17;0.10;;;;;;;14.38;68.82;102095.16;5038951;28;20048;-76
2023/09/14 08:51:23;;;;;;;1.38;0.70;;;;;;;14.38;67.82;102087.28;5040140;28;20041;-75
2023/09/14 08:53:50;;;;;;;0.80;0.10;;;;;;;14.38;67.72;102082.00;5041784;28;20061;-78
2023/09/14 08:56:17;;;;;;;3.03;0.10;;;;;;;14.45;67.90;102094.16;5041436;28;20049;-74
2023/09/14 08:58:45;;;;;;;0.93;0.00;;;;;;;14.47;67.86;102092.41;5036411;28;20041;-73
2023/09/14 09:01:14;;;;;;;0.00;0.00;;;;;;;14.50;67.30;102080.97;5038964;28;20443;-77
2023/09/14 09:03:41;;;;;;;1.10;0.10;;;;;;;14.53;67.43;102089.72;5037921;28;20521;-75
2023/09/14 09:06:09;;;;;;;0.10;0.00;;;;;;;14.55;67.49;102077.44;5044330;28;20049;-76
2023/09/14 09:08:37;;;;;;;0.38;0.00;;;;;;;14.60;67.37;102080.88;5029417;28;20060;-76
2023/09/14 09:11:05;;;;;;;1.33;0.90;;;;;;;14.62;67.36;102083.47;5025395;28;20045;-75
2023/09/14 09:13:35;;;;;;;0.63;0.10;;;;;;;14.65;67.23;102090.44;5041009;28;20053;-76
2023/09/14 09:16:03;;;;;;;0.95;0.25;;;;;;;14.68;67.45;102091.25;5030032;28;20051;-76
2023/09/14 09:18:30;;;;;;;6.07;0.30;;;;;;;14.71;67.36;102079.81;5040137;28;20052;-76
2023/09/14 09:20:57;;;;;;;0.10;0.00;;;;;;;14.74;67.23;102077.16;5039421;28;20042;-79
2023/09/14 09:23:26;;;;;;;0.40;0.00;;;;;;;14.75;67.10;102071.00;5041323;28;20197;-76
2023/09/14 09:25:55;;;;;;;0.55;0.17;;;;;;;14.78;66.40;102082.34;5041846;28;20478;-74
2023/09/14 09:28:29;;;;;;;0.03;0.00;;;;;;;14.75;66.43;102065.75;5039211;28;20052;-76
2023/09/14 09:30:56;;;;;;;0.20;0.00;;;;;;;14.83;66.25;102077.88;5030802;28;20136;-77
2023/09/14 09:33:34;;;;;;;0.05;0.00;;;;;;;14.88;66.35;102082.19;5041675;28;20052;-75
2023/09/14 09:36:02;;;;;;;1.48;0.00;;;;;;;14.89;66.01;102083.97;5039331;28;20052;-74
2023/09/14 09:38:36;;;;;;;0.98;0.10;;;;;;;14.94;65.99;102077.72;5042082;28;20099;-83
2023/09/14 09:41:10;;;;;;;0.43;0.00;;;;;;;14.99;65.73;102072.38;5044709;28;20048;-86
2023/09/14 09:43:37;;;;;;;0.32;0.00;;;;;;;15.01;65.52;102071.47;5048284;28;20524;-85
2023/09/14 09:46:04;;;;;;;0.85;0.00;;;;;;;14.97;65.48;102056.63;5052503;28;20048;-84
2023/09/14 09:48:32;;;;;;;1.27;0.08;;;;;;;15.11;65.10;102076.56;5051915;28;20056;-84
2023/09/14 09:50:59;;;;;;;0.20;0.05;;;;;;;15.13;64.59;102080.06;5047110;28;20045;-84
2023/09/14 09:53:26;;;;;;;0.75;0.10;;;;;;;15.17;64.54;102073.81;5052065;28;20041;-85
2023/09/14 09:55:53;;;;;;;1.85;0.10;;;;;;;15.20;64.92;102073.81;5041391;28;20053;-85
2023/09/14 09:58:24;;;;;;;0.30;0.05;;;;;;;15.14;64.77;102053.72;5044961;28;20042;-84
2023/09/14 10:00:58;;;;;;;0.10;0.00;;;;;;;15.26;64.56;102068.44;5050975;28;20497;-85
2023/09/14 10:03:25;;;;;;;1.80;0.10;;;;;;;15.25;64.34;102054.41;5049547;28;20049;-84
2023/09/14 10:05:52;;;;;;;1.40;0.10;;;;;;;15.35;64.70;102076.16;5041702;28;20499;-83
2023/09/14 10:08:20;;;;;;;0.75;0.10;;;;;;;15.40;64.62;102084.84;5042071;28;20474;-85
2023/09/14 10:10:51;;;;;;;0.30;0.00;;;;;;;15.45;64.88;102090.91;5047328;28;20045;-80
2023/09/14 10:13:22;;;;;;;0.22;0.10;;;;;;;15.49;64.73;102089.94;5047978;28;20048;-80
2023/09/14 10:15:51;;;;;;;12.13;0.35;;;;;;;15.53;64.67;102099.53;5046915;28;20046;-80
2023/09/14 10:18:21;;;;;;;0.88;0.10;;;;;;;15.58;64.61;102098.59;5048866;28;20060;-81
2023/09/14 10:20:49;;;;;;;0.73;0.10;;;;;;;15.60;64.59;102100.28;5043571;28;20041;-78
2023/09/14 10:23:17;;;;;;;0.08;0.00;;;;;;;15.63;64.31;102099.38;5045325;28;20048;-78
2023/09/14 10:25:49;;;;;;;0.00;0.00;;;;;;;15.65;64.40;102095.81;5041184;28;20378;-77
2023/09/14 10:28:17;;;;;;;0.20;0.08;;;;;;;15.68;63.68;102108.06;5042998;28;20047;-77
2023/09/14 10:30:46;;;;;;;0.35;0.10;;;;;;;15.71;63.70;102100.13;5044403;28;20037;-77
2023/09/14 10:33:15;;;;;;;0.50;0.10;;;;;;;15.72;64.12;102104.50;5038138;28;20327;-77
2023/09/14 10:35:43;;;;;;;0.30;0.05;;;;;;;15.72;63.35;102105.38;5039588;28;20041;-75
2023/09/14 10:38:10;;;;;;;2.40;0.28;;;;;;;15.75;63.58;102107.06;5034865;28;20041;-76
2023/09/14 10:40:38;;;;;;;1.13;0.05;;;;;;;15.71;63.70;102089.59;5039557;28;20398;-76
2023/09/14 10:43:05;;;;;;;0.77;0.10;;;;;;;15.77;63.29;102105.28;5038903;28;21346;-77
2023/09/14 10:45:35;;;;;;;0.17;0.00;;;;;;;15.80;62.84;102099.09;5044075;28;20045;-77
2023/09/14 10:48:07;;;;;;;1.48;0.00;;;;;;;15.81;63.62;102101.69;5038262;28;20056;-77
2023/09/14 10:50:35;;;;;;;1.05;0.08;;;;;;;15.84;62.90;102111.28;5045391;28;20056;-78
2023/09/14 10:53:02;;;;;;;0.60;0.10;;;;;;;15.85;62.49;102089.31;5043026;28;20063;-78
2023/09/14 10:55:31;;;;;;;0.35;0.00;;;;;;;15.85;62.40;102098.09;5040805;28;20057;-75
2023/09/14 10:57:58;;;;;;;1.10;0.10;;;;;;;15.85;62.81;102100.75;5040606;28;20411;-76
2023/09/14 11:00:43;;;;;;;1.33;0.00;;;;;;;15.85;62.43;102092.84;5040719;28;20807;-76
2023/09/14 11:03:13;;;;;;;0.50;0.10;;;;;;;15.83;62.78;102094.63;5047444;28;20117;-74
2023/09/14 11:05:41;;;;;;;1.02;0.05;;;;;;;15.82;62.26;102097.28;5047227;28;20040;-80
2023/09/14 11:08:08;;;;;;;1.00;0.10;;;;;;;15.82;62.35;102089.38;5046655;28;20044;-78
2023/09/14 11:10:37;;;;;;;0.00;0.00;;;;;;;15.82;61.93;102087.59;5031075;28;20037;-78
2023/09/14 11:13:26;;;;;;;0.13;0.00;;;;;;;15.84;61.78;102088.44;5040239;28;20041;-87
2023/09/14 11:16:04;;;;;;;0.95;0.10;;;;;;;15.83;60.77;102092.00;5044390;28;20076;-77
2023/09/14 11:18:37;;;;;;;2.65;0.10;;;;;;;15.84;60.89;102080.53;5047716;28;20681;-78
2023/09/14 11:21:05;;;;;;;3.58;0.10;;;;;;;15.84;60.23;102077.91;5048492;28;20518;-79
2023/09/14 11:23:36;;;;;;;2.10;0.10;;;;;;;15.84;59.82;102079.69;5050973;28;20064;-79
2023/09/14 11:26:04;;;;;;;0.10;0.00;;;;;;;15.84;60.37;102079.69;5051424;28;20114;-79
2023/09/14 11:28:35;;;;;;;4.32;0.10;;;;;;;15.83;60.96;102088.50;5044656;28;20045;-81
2023/09/14 11:31:02;;;;;;;0.85;0.00;;;;;;;15.83;61.17;102094.63;5049213;28;20445;-80